createdAt,value
2023-04-10T00:02:00.435Z,6.24
2023-04-10T00:04:28.437Z,6.20
2023-04-10T00:06:55.476Z,6.14
2023-04-10T00:09:22.037Z,6.10
2023-04-10T00:11:48.544Z,6.06
2023-04-10T00:14:14.977Z,6.05
2023-04-10T00:16:41.574Z,6.03
2023-04-10T00:19:08.129Z,6.00
2023-04-10T00:21:34.598Z,5.99
2023-04-10T00:24:01.043Z,5.93
2023-04-10T00:26:27.449Z,5.88
2023-04-10T00:28:53.874Z,5.83
2023-04-10T00:31:20.445Z,5.81
2023-04-10T00:33:47.061Z,5.77
2023-04-10T00:36:13.567Z,5.75
2023-04-10T00:38:40.073Z,5.74
2023-04-10T00:41:06.917Z,5.74
2023-04-10T00:43:33.332Z,5.76
2023-04-10T00:45:59.868Z,5.80
2023-04-10T00:48:26.562Z,5.81
2023-04-10T00:50:53.136Z,5.82
2023-04-10T00:53:20.275Z,5.86
2023-04-10T00:55:47.294Z,5.86
2023-04-10T00:58:14.643Z,5.88
2023-04-10T01:00:41.631Z,5.90
2023-04-10T01:03:09.395Z,5.91
2023-04-10T01:05:43.936Z,5.90
2023-04-10T01:08:34.954Z,5.86
2023-04-10T01:11:21.141Z,5.82
2023-04-10T01:14:01.285Z,5.79
2023-04-10T01:16:46.488Z,5.76
2023-04-10T01:19:33.255Z,5.73
2023-04-10T01:22:03.815Z,5.74
2023-04-10T01:24:46.861Z,5.73
2023-04-10T01:27:45.638Z,5.72
2023-04-10T01:30:14.777Z,5.71
2023-04-10T01:32:41.695Z,5.73
2023-04-10T01:35:08.946Z,5.75
2023-04-10T01:37:40.870Z,5.78
2023-04-10T01:40:10.834Z,5.78
2023-04-10T01:42:47.455Z,5.80
2023-04-10T01:45:18.256Z,5.80
2023-04-10T01:47:44.940Z,5.80
2023-04-10T01:50:12.127Z,5.81
2023-04-10T01:52:40.247Z,5.82
2023-04-10T01:55:08.420Z,5.84
2023-04-10T01:57:36.436Z,5.81
2023-04-10T02:00:06.840Z,5.81
2023-04-10T02:02:34.234Z,5.84
2023-04-10T02:05:01.076Z,5.83
2023-04-10T02:07:57.578Z,5.84
2023-04-10T02:10:37.598Z,5.83
2023-04-10T02:13:07.241Z,5.86
2023-04-10T02:15:35.524Z,5.84
2023-04-10T02:18:06.839Z,5.84
2023-04-10T02:20:33.534Z,5.86
2023-04-10T02:23:03.618Z,5.89
2023-04-10T02:25:33.935Z,5.94
2023-04-10T02:28:05.201Z,5.99
2023-04-10T02:30:32.966Z,6.04
2023-04-10T02:32:59.562Z,6.09
2023-04-10T02:35:26.562Z,6.10
2023-04-10T02:37:52.948Z,6.08
2023-04-10T02:40:19.386Z,6.03
2023-04-10T02:42:46.130Z,5.94
2023-04-10T02:45:12.505Z,5.84
2023-04-10T02:47:38.896Z,5.78
2023-04-10T02:50:05.977Z,5.69
2023-04-10T02:52:32.387Z,5.62
2023-04-10T02:54:58.769Z,5.57
2023-04-10T02:57:26.184Z,5.56
2023-04-10T02:59:52.771Z,5.56
2023-04-10T03:02:19.298Z,5.60
2023-04-10T03:04:46.023Z,5.62
2023-04-10T03:07:12.489Z,5.66
2023-04-10T03:09:38.940Z,5.71
2023-04-10T03:12:05.416Z,5.76
2023-04-10T03:14:31.830Z,5.80
2023-04-10T03:16:58.274Z,5.84
2023-04-10T03:19:26.611Z,5.87
2023-04-10T03:21:53.581Z,5.91
2023-04-10T03:24:20.725Z,5.95
2023-04-10T03:26:47.409Z,5.97
2023-04-10T03:29:18.756Z,6.02
2023-04-10T03:31:46.016Z,6.06
2023-04-10T03:34:12.536Z,6.11
2023-04-10T03:36:38.991Z,6.08
2023-04-10T03:39:05.910Z,6.07
2023-04-10T03:41:32.387Z,6.04
2023-04-10T03:43:58.836Z,6.01
2023-04-10T03:46:25.392Z,5.94
2023-04-10T03:48:53.891Z,5.87
2023-04-10T03:51:20.510Z,5.80
2023-04-10T03:53:47.167Z,5.74
2023-04-10T03:56:13.697Z,5.71
2023-04-10T03:58:40.261Z,5.67
2023-04-10T04:01:07.138Z,5.64
2023-04-10T04:03:33.916Z,5.63
2023-04-10T04:06:00.530Z,5.62
2023-04-10T04:08:26.955Z,5.59
2023-04-10T04:10:53.387Z,5.56
2023-04-10T04:13:19.751Z,5.56
2023-04-10T04:15:47.829Z,5.52
2023-04-10T04:18:14.305Z,5.50
2023-04-10T04:20:40.992Z,5.50
2023-04-10T04:23:07.375Z,5.47
2023-04-10T04:25:33.786Z,5.46
2023-04-10T04:28:01.124Z,5.43
2023-04-10T04:30:27.491Z,5.42
2023-04-10T04:32:53.973Z,5.37
2023-04-10T04:35:20.489Z,5.38
2023-04-10T04:37:46.898Z,5.34
2023-04-10T04:40:13.342Z,5.30
2023-04-10T04:42:39.739Z,5.25
2023-04-10T04:45:06.908Z,5.25
2023-04-10T04:47:33.340Z,5.21
2023-04-10T04:49:59.715Z,5.22
2023-04-10T04:52:27.492Z,5.18
2023-04-10T04:54:53.913Z,5.17
2023-04-10T04:57:20.395Z,5.18
2023-04-10T04:59:46.789Z,5.21
2023-04-10T05:02:13.237Z,5.24
2023-04-10T05:04:39.642Z,5.28
2023-04-10T05:07:06.080Z,5.30
2023-04-10T05:09:32.498Z,5.36
2023-04-10T05:11:58.887Z,5.38
2023-04-10T05:14:25.375Z,5.45
2023-04-10T05:16:51.791Z,5.51
2023-04-10T05:19:18.208Z,5.55
2023-04-10T05:21:44.608Z,5.63
2023-04-10T05:24:11.157Z,5.69
2023-04-10T05:26:37.861Z,5.73
2023-04-10T05:29:04.402Z,5.78
2023-04-10T05:31:30.878Z,5.81
2023-04-10T05:33:57.324Z,5.87
2023-04-10T05:36:23.731Z,5.92
2023-04-10T05:38:50.165Z,5.99
2023-04-10T05:41:16.650Z,6.05
2023-04-10T05:43:43.129Z,6.11
2023-04-10T05:46:09.585Z,6.13
2023-04-10T05:48:36.072Z,6.12
2023-04-10T05:51:02.524Z,6.19
2023-04-10T05:53:31.251Z,6.26
2023-04-10T05:55:59.496Z,6.30
2023-04-10T05:58:27.029Z,6.35
2023-04-10T06:00:53.478Z,6.39
2023-04-10T06:03:20.214Z,6.45
2023-04-10T06:05:46.764Z,6.50
2023-04-10T06:08:13.186Z,6.57
2023-04-10T06:10:39.848Z,6.67
2023-04-10T06:13:07.640Z,6.71
2023-04-10T06:15:35.315Z,6.79
2023-04-10T06:18:02.131Z,6.87
2023-04-10T06:20:28.756Z,6.90
2023-04-10T06:22:55.543Z,7.00
2023-04-10T06:25:22.234Z,7.08
2023-04-10T06:27:48.747Z,7.18
2023-04-10T06:30:15.524Z,7.24
2023-04-10T06:32:42.109Z,7.32
2023-04-10T06:35:09.111Z,7.39
2023-04-10T06:37:35.621Z,7.47
2023-04-10T06:40:09.289Z,7.57
2023-04-10T06:42:36.888Z,7.74
2023-04-10T06:45:04.281Z,7.92
2023-04-10T06:47:32.192Z,8.02
2023-04-10T06:49:58.939Z,8.06
2023-04-10T06:52:26.006Z,8.15
2023-04-10T06:54:52.397Z,8.21
2023-04-10T06:57:18.859Z,8.29
2023-04-10T06:59:45.532Z,8.30
2023-04-10T07:02:12.286Z,8.36
2023-04-10T07:04:38.725Z,8.45
2023-04-10T07:07:09.689Z,8.53
2023-04-10T07:09:36.255Z,8.60
2023-04-10T07:12:02.710Z,8.66
2023-04-10T07:14:29.239Z,8.74
2023-04-10T07:16:55.677Z,8.81
2023-04-10T07:19:22.107Z,8.90
2023-04-10T07:21:50.206Z,8.88
2023-04-10T07:24:17.578Z,8.98
2023-04-10T07:26:44.992Z,9.04
2023-04-10T07:29:11.969Z,9.12
2023-04-10T07:31:38.653Z,9.24
2023-04-10T07:34:05.335Z,9.29
2023-04-10T07:36:31.959Z,9.36
2023-04-10T07:38:58.704Z,9.52
2023-04-10T07:41:25.447Z,9.61
2023-04-10T07:43:51.882Z,9.71
2023-04-10T07:46:18.396Z,9.82
2023-04-10T07:48:44.842Z,9.95
2023-04-10T07:51:11.489Z,10.12
2023-04-10T07:53:38.115Z,10.27
2023-04-10T07:56:04.904Z,10.39
2023-04-10T07:58:31.924Z,10.40
2023-04-10T08:00:58.702Z,10.50
2023-04-10T08:03:26.535Z,10.57
2023-04-10T08:05:53.097Z,10.69
2023-04-10T08:08:19.511Z,10.71
2023-04-10T08:10:45.961Z,10.66
2023-04-10T08:13:12.674Z,10.71
2023-04-10T08:15:39.069Z,10.80
2023-04-10T08:18:05.507Z,10.79
2023-04-10T08:20:36.773Z,10.73
2023-04-10T08:25:50.820Z,10.93
2023-04-10T08:28:17.462Z,11.10
2023-04-10T08:30:43.970Z,11.10
2023-04-10T08:33:12.612Z,11.19
2023-04-10T08:35:39.033Z,11.20
2023-04-10T08:38:13.572Z,11.37
2023-04-10T08:40:41.371Z,11.44
2023-04-10T08:43:07.798Z,11.50
2023-04-10T08:45:34.184Z,11.58
2023-04-10T08:48:05.353Z,11.66
2023-04-10T08:50:36.117Z,11.77
2023-04-10T08:53:08.663Z,12.00
2023-04-10T08:55:35.378Z,12.17
2023-04-10T08:58:02.301Z,12.44
2023-04-10T09:00:29.331Z,12.61
2023-04-10T09:02:58.368Z,12.71
2023-04-10T09:05:29.659Z,12.83
2023-04-10T09:07:56.152Z,12.89
2023-04-10T09:10:23.697Z,13.11
2023-04-10T09:12:50.308Z,13.17
2023-04-10T09:15:16.724Z,13.29
2023-04-10T09:18:03.747Z,13.37
2023-04-10T09:20:31.906Z,13.57
2023-04-10T09:22:58.560Z,13.62
2023-04-10T09:25:33.526Z,13.85
2023-04-10T09:28:05.544Z,14.06
2023-04-10T09:30:42.225Z,14.23
2023-04-10T09:33:35.598Z,14.38
2023-04-10T09:36:03.977Z,14.54
2023-04-10T09:38:30.642Z,14.74
2023-04-10T09:41:08.480Z,14.83
2023-04-10T09:43:34.904Z,14.92
2023-04-10T09:46:01.305Z,14.93
2023-04-10T09:48:28.015Z,15.00
2023-04-10T09:50:54.525Z,15.05
2023-04-10T09:53:23.752Z,15.15
2023-04-10T09:55:50.821Z,15.22
2023-04-10T09:58:18.433Z,15.24
2023-04-10T10:00:51.653Z,15.36
2023-04-10T10:03:19.684Z,15.50
2023-04-10T10:05:52.420Z,15.57
2023-04-10T10:08:21.400Z,15.68
2023-04-10T10:10:53.978Z,15.77
2023-04-10T10:13:52.062Z,15.89
2023-04-10T10:16:29.499Z,15.93
2023-04-10T10:19:12.893Z,16.05
2023-04-10T10:21:41.691Z,16.15
2023-04-10T10:24:09.386Z,16.28
2023-04-10T10:26:38.870Z,16.12
2023-04-10T10:29:10.688Z,16.43
2023-04-10T10:31:38.847Z,16.68
2023-04-10T10:34:07.518Z,16.76
2023-04-10T10:36:35.678Z,16.97
2023-04-10T10:39:11.410Z,17.19
2023-04-10T10:41:51.908Z,17.35
2023-04-10T10:44:33.143Z,17.39
2023-04-10T10:47:27.159Z,17.50
2023-04-10T10:50:03.106Z,17.67
2023-04-10T10:52:57.374Z,17.86
2023-04-10T10:55:36.739Z,18.12
2023-04-10T10:58:05.410Z,18.25
2023-04-10T11:01:04.977Z,18.27
2023-04-10T11:03:31.616Z,18.33
2023-04-10T11:06:07.467Z,18.32
2023-04-10T11:08:34.080Z,18.55
2023-04-10T11:11:02.021Z,18.71
2023-04-10T11:13:28.671Z,18.82
2023-04-10T11:15:59.853Z,18.95
2023-04-10T11:18:44.745Z,19.15
2023-04-10T11:21:13.068Z,19.15
2023-04-10T11:23:59.460Z,19.07
2023-04-10T11:26:35.412Z,18.78
2023-04-10T11:29:03.274Z,18.77
2023-04-10T11:31:30.230Z,18.73
2023-04-10T11:33:57.493Z,18.77
2023-04-10T11:36:24.520Z,18.74
2023-04-10T11:39:06.006Z,18.71
2023-04-10T11:41:34.535Z,18.66
2023-04-10T11:44:02.534Z,18.67
2023-04-10T11:46:29.490Z,18.80
2023-04-10T11:49:01.239Z,18.87
2023-04-10T11:51:28.699Z,18.90
2023-04-10T11:54:08.423Z,18.84
2023-04-10T11:56:36.264Z,18.98
2023-04-10T11:59:07.219Z,18.86
2023-04-10T12:01:34.081Z,18.75
2023-04-10T12:04:01.503Z,18.74
2023-04-10T12:06:28.347Z,18.71
2023-04-10T12:08:55.158Z,18.54
2023-04-10T12:11:24.575Z,18.56
2023-04-10T12:13:58.145Z,18.59
2023-04-10T12:16:25.291Z,18.55
2023-04-10T12:18:53.472Z,18.56
2023-04-10T12:21:20.677Z,18.58
2023-04-10T12:23:47.103Z,18.51
2023-04-10T12:26:17.775Z,18.53
2023-04-10T12:28:53.465Z,18.49
2023-04-10T12:31:28.125Z,18.56
2023-04-10T12:33:57.774Z,18.58
2023-04-10T12:36:29.818Z,18.76
2023-04-10T12:39:00.756Z,18.84
2023-04-10T12:41:30.454Z,18.91
2023-04-10T12:44:10.852Z,18.99
2023-04-10T12:46:37.620Z,19.13
2023-04-10T12:49:15.775Z,19.27
2023-04-10T12:51:46.246Z,19.27
2023-04-10T12:54:27.265Z,19.39
2023-04-10T12:56:54.541Z,19.36
2023-04-10T12:59:21.643Z,19.53
2023-04-10T13:01:49.457Z,19.41
2023-04-10T13:04:16.685Z,19.89
2023-04-10T13:06:47.221Z,20.15
2023-04-10T13:09:14.710Z,20.14
2023-04-10T13:11:42.132Z,20.42
2023-04-10T13:14:09.300Z,20.50
2023-04-10T13:16:35.807Z,20.62
2023-04-10T13:19:02.494Z,20.60
2023-04-10T13:21:29.244Z,20.28
2023-04-10T13:23:56.351Z,20.42
2023-04-10T13:26:23.434Z,20.44
2023-04-10T13:28:50.110Z,20.53
2023-04-10T13:31:16.563Z,20.29
2023-04-10T13:33:48.069Z,20.08
2023-04-10T13:36:15.433Z,19.90
2023-04-10T13:38:42.325Z,19.73
2023-04-10T13:41:09.393Z,19.66
2023-04-10T13:43:36.877Z,19.64
2023-04-10T13:46:03.428Z,19.53
2023-04-10T13:48:37.286Z,19.64
2023-04-10T13:51:06.930Z,19.61
2023-04-10T13:53:33.352Z,19.62
2023-04-10T13:55:59.897Z,19.51
2023-04-10T13:58:31.847Z,19.56
2023-04-10T14:00:58.772Z,19.69
2023-04-10T14:03:25.494Z,19.68
2023-04-10T14:05:52.882Z,19.85
2023-04-10T14:08:19.569Z,19.87
2023-04-10T14:10:50.703Z,19.84
2023-04-10T14:13:17.735Z,19.84
2023-04-10T14:15:44.510Z,19.88
2023-04-10T14:18:11.236Z,20.05
2023-04-10T14:20:37.732Z,20.30
2023-04-10T14:23:04.377Z,20.55
2023-04-10T14:25:30.808Z,20.80
2023-04-10T14:27:57.314Z,20.90
2023-04-10T14:30:25.919Z,20.94
2023-04-10T14:32:52.475Z,20.85
2023-04-10T14:35:19.027Z,20.72
2023-04-10T14:37:45.634Z,20.52
2023-04-10T14:40:12.164Z,20.36
2023-04-10T14:42:38.667Z,20.11
2023-04-10T14:45:06.193Z,20.11
2023-04-10T14:47:32.809Z,20.06
2023-04-10T14:49:59.262Z,19.97
2023-04-10T14:52:25.878Z,19.87
2023-04-10T14:54:52.312Z,19.73
2023-04-10T14:57:18.765Z,19.68
2023-04-10T14:59:45.408Z,19.65
2023-04-10T15:02:12.639Z,19.67
2023-04-10T15:04:39.388Z,19.70
2023-04-10T15:07:06.235Z,19.63
2023-04-10T15:09:32.759Z,19.54
2023-04-10T15:11:59.246Z,19.56
2023-04-10T15:14:25.759Z,19.45
2023-04-10T15:16:54.140Z,19.29
2023-04-10T15:19:20.778Z,19.28
2023-04-10T15:21:47.287Z,19.27
2023-04-10T15:24:13.734Z,19.19
2023-04-10T15:26:45.290Z,19.06
2023-04-10T15:29:12.740Z,18.90
2023-04-10T15:31:39.387Z,18.87
2023-04-10T15:34:05.851Z,18.80
2023-04-10T15:36:32.547Z,18.78
2023-04-10T15:39:03.724Z,18.75
2023-04-10T15:41:33.156Z,18.70
2023-04-10T15:43:59.903Z,18.75
2023-04-10T15:46:26.970Z,18.74
2023-04-10T15:48:53.534Z,18.60
2023-04-10T15:51:20.553Z,18.54
2023-04-10T15:53:46.941Z,18.46
2023-04-10T15:56:15.976Z,18.45
2023-04-10T15:58:42.399Z,18.38
2023-04-10T16:01:08.875Z,18.39
2023-04-10T16:03:35.464Z,18.28
2023-04-10T16:06:01.952Z,18.35
2023-04-10T16:08:28.385Z,18.27
2023-04-10T16:10:56.067Z,18.25
2023-04-10T16:13:22.500Z,18.22
2023-04-10T16:15:49.851Z,18.15
2023-04-10T16:18:16.374Z,18.11
2023-04-10T16:20:43.035Z,18.07
2023-04-10T16:23:09.711Z,18.04
2023-04-10T16:25:36.119Z,18.09
2023-04-10T16:28:02.687Z,18.46
2023-04-10T16:30:29.095Z,18.65
2023-04-10T16:32:55.571Z,18.83
2023-04-10T16:35:22.406Z,19.11
2023-04-10T16:37:49.090Z,19.08
2023-04-10T16:40:16.079Z,18.89
2023-04-10T16:42:42.955Z,19.13
2023-04-10T16:45:10.139Z,19.60
2023-04-10T16:47:36.869Z,19.39
2023-04-10T16:50:03.407Z,19.61
2023-04-10T16:52:32.037Z,19.85
2023-04-10T16:54:58.428Z,20.04
2023-04-10T16:57:24.826Z,20.43
2023-04-10T16:59:55.791Z,20.44
2023-04-10T17:02:25.027Z,20.19
2023-04-10T17:04:53.681Z,20.73
2023-04-10T17:07:20.204Z,21.04
2023-04-10T17:09:46.618Z,21.18
2023-04-10T17:12:13.155Z,21.42
2023-04-10T17:14:39.614Z,20.99
2023-04-10T17:17:06.075Z,20.78
2023-04-10T17:19:32.568Z,20.53
2023-04-10T17:21:58.988Z,20.10
2023-04-10T17:24:25.496Z,19.75
2023-04-10T17:26:52.097Z,19.38
2023-04-10T17:29:18.517Z,19.09
2023-04-10T17:31:44.962Z,18.72
2023-04-10T17:34:11.447Z,18.50
2023-04-10T17:36:37.849Z,18.18
2023-04-10T17:39:05.546Z,18.06
2023-04-10T17:41:32.006Z,17.91
2023-04-10T17:43:58.402Z,17.79
2023-04-10T17:46:24.795Z,17.65
2023-04-10T17:48:51.329Z,17.51
2023-04-10T17:51:18.048Z,17.41
2023-04-10T17:53:46.093Z,17.30
2023-04-10T17:56:21.655Z,17.24
2023-04-10T17:58:48.302Z,17.12
2023-04-10T18:01:27.412Z,17.04
2023-04-10T18:03:54.001Z,16.89
2023-04-10T18:06:20.732Z,16.89
2023-04-10T18:08:47.201Z,16.86
2023-04-10T18:11:13.608Z,16.81
2023-04-10T18:13:40.058Z,16.74
2023-04-10T18:16:07.149Z,16.72
2023-04-10T18:18:34.175Z,16.69
2023-04-10T18:21:04.672Z,16.64
2023-04-10T18:23:31.520Z,16.60
2023-04-10T18:25:57.952Z,16.53
2023-04-10T18:28:24.835Z,16.51
2023-04-10T18:30:56.522Z,16.47
2023-04-10T18:33:26.403Z,16.43
2023-04-10T18:35:58.586Z,16.38
2023-04-10T18:38:25.981Z,16.39
2023-04-10T18:40:56.079Z,16.35
2023-04-10T18:43:25.382Z,16.33
2023-04-10T18:45:51.903Z,16.28
2023-04-10T18:48:18.342Z,16.26
2023-04-10T18:50:44.771Z,16.24
2023-04-10T18:53:11.202Z,16.23
2023-04-10T18:55:37.667Z,16.19
2023-04-10T18:58:04.081Z,16.15
2023-04-10T19:00:32.041Z,16.14
2023-04-10T19:02:58.528Z,16.11
2023-04-10T19:05:25.112Z,16.06
2023-04-10T19:08:02.954Z,16.07
2023-04-10T19:10:31.150Z,16.06
2023-04-10T19:12:57.593Z,16.05
2023-04-10T19:15:25.008Z,16.04
2023-04-10T19:17:54.901Z,16.02
2023-04-10T19:20:52.818Z,16.01
2023-04-10T19:23:08.065Z,16.01
2023-04-10T19:25:34.496Z,16.02
2023-04-10T19:28:01.178Z,15.98
2023-04-10T19:30:28.386Z,15.97
2023-04-10T19:32:55.793Z,15.95
2023-04-10T19:35:22.622Z,15.94
2023-04-10T19:37:49.934Z,15.93
2023-04-10T19:40:18.519Z,15.92
2023-04-10T19:42:45.355Z,15.88
2023-04-10T19:45:12.747Z,15.84
2023-04-10T19:47:39.266Z,15.79
2023-04-10T19:50:06.051Z,15.76
2023-04-10T19:52:32.465Z,15.74
2023-04-10T19:54:58.995Z,15.67
2023-04-10T19:57:25.479Z,15.65
2023-04-10T19:59:51.872Z,15.61
2023-04-10T20:02:18.497Z,15.61
2023-04-10T20:04:47.204Z,15.59
2023-04-10T20:07:15.014Z,15.58
2023-04-10T20:09:41.612Z,15.55
2023-04-10T20:12:08.530Z,15.55
2023-04-10T20:14:34.995Z,15.56
2023-04-10T20:17:01.398Z,15.58
2023-04-10T20:19:27.894Z,15.61
2023-04-10T20:21:54.344Z,15.63
2023-04-10T20:24:20.816Z,15.58
2023-04-10T20:26:47.258Z,15.65
2023-04-10T20:29:13.695Z,15.72
2023-04-10T20:31:40.217Z,15.74
2023-04-10T20:34:06.818Z,15.73
2023-04-10T20:36:34.727Z,15.69
2023-04-10T20:39:01.301Z,15.69
2023-04-10T20:41:27.909Z,15.65
2023-04-10T20:43:55.816Z,15.59
2023-04-10T20:46:22.413Z,15.61
2023-04-10T20:48:49.045Z,15.62
2023-04-10T20:51:15.578Z,15.59
2023-04-10T20:53:42.009Z,15.55
2023-04-10T20:56:08.839Z,15.54
2023-04-10T20:58:35.383Z,15.44
2023-04-10T21:01:01.961Z,15.42
2023-04-10T21:03:29.686Z,15.42
2023-04-10T21:05:56.417Z,15.42
2023-04-10T21:08:22.955Z,15.35
2023-04-10T21:10:49.506Z,15.31
2023-04-10T21:13:16.131Z,15.24
2023-04-10T21:15:43.146Z,15.19
2023-04-10T21:18:09.736Z,15.16
2023-04-10T21:20:36.261Z,15.03
2023-04-10T21:23:02.950Z,14.98
2023-04-10T21:25:32.627Z,14.92
2023-04-10T21:28:00.572Z,14.81
2023-04-10T21:30:27.315Z,14.73
2023-04-10T21:32:53.797Z,14.61
2023-04-10T21:35:20.394Z,14.45
2023-04-10T21:37:47.797Z,14.05
2023-04-10T21:40:14.180Z,13.81
2023-04-10T21:42:40.610Z,13.51
2023-04-10T21:45:07.456Z,13.36
2023-04-10T21:47:33.806Z,13.21
2023-04-10T21:50:00.315Z,13.02
2023-04-10T21:52:26.744Z,12.91
2023-04-10T21:54:53.209Z,12.80
2023-04-10T21:57:19.601Z,12.73
2023-04-10T21:59:46.057Z,12.65
2023-04-10T22:02:13.223Z,12.58
2023-04-10T22:04:47.979Z,12.50
2023-04-10T22:07:20.227Z,12.43
2023-04-10T22:09:46.681Z,12.39
2023-04-10T22:12:13.104Z,12.36
2023-04-10T22:14:39.535Z,12.34
2023-04-10T22:17:06.040Z,12.30
2023-04-10T22:19:32.556Z,12.28
2023-04-10T22:21:59.115Z,12.26
2023-04-10T22:24:25.775Z,12.26
2023-04-10T22:26:52.204Z,12.23
2023-04-10T22:29:18.658Z,12.24
2023-04-10T22:31:45.199Z,12.22
2023-04-10T22:34:11.764Z,12.22
2023-04-10T22:36:38.236Z,12.19
2023-04-10T22:39:04.810Z,12.18
2023-04-10T22:41:31.819Z,12.19
2023-04-10T22:43:58.464Z,12.15
2023-04-10T22:46:25.679Z,12.12
2023-04-10T22:48:53.890Z,12.06
2023-04-10T22:51:20.677Z,12.01
2023-04-10T22:53:47.109Z,12.01
2023-04-10T22:56:13.747Z,11.99
2023-04-10T22:58:40.697Z,11.92
2023-04-10T23:01:08.291Z,11.90
2023-04-10T23:03:35.456Z,11.90
2023-04-10T23:06:02.419Z,11.85
2023-04-10T23:08:28.870Z,11.83
2023-04-10T23:10:55.810Z,11.79
2023-04-10T23:13:22.518Z,11.78
2023-04-10T23:15:53.351Z,11.78
2023-04-10T23:18:19.915Z,11.78
2023-04-10T23:20:47.425Z,11.78
2023-04-10T23:23:14.339Z,11.77
2023-04-10T23:25:40.758Z,11.76
2023-04-10T23:28:07.313Z,11.71
2023-04-10T23:30:33.758Z,11.67
2023-04-10T23:33:00.184Z,11.59
2023-04-10T23:35:26.992Z,11.56
2023-04-10T23:37:54.109Z,11.54
2023-04-10T23:40:21.452Z,11.54
2023-04-10T23:42:47.931Z,11.52
2023-04-10T23:45:14.433Z,11.49
2023-04-10T23:47:40.880Z,11.47
2023-04-10T23:50:07.866Z,11.45
2023-04-10T23:52:34.253Z,11.45
2023-04-10T23:55:00.728Z,11.47
2023-04-10T23:57:27.101Z,11.50
2023-04-10T23:59:53.513Z,11.55
